sensor_id;sensor_type;location;lat;lon;timestamp;pressure;altitude;pressure_sealevel;temperature;humidity
36380;BME280;22411;53.016;18.632;2022-12-07T00:01:41;100027.22;;;1.92;100.00
36380;BME280;22411;53.016;18.632;2022-12-07T00:04:11;100026.69;;;1.83;100.00
36380;BME280;22411;53.016;18.632;2022-12-07T00:06:43;100035.44;;;1.78;100.00
36380;BME280;22411;53.016;18.632;2022-12-07T00:09:15;100033.00;;;1.75;100.00
36380;BME280;22411;53.016;18.632;2022-12-07T00:11:42;100022.63;;;1.79;100.00
36380;BME280;22411;53.016;18.632;2022-12-07T00:14:14;100033.88;;;1.74;100.00
36380;BME280;22411;53.016;18.632;2022-12-07T00:16:41;100022.66;;;1.78;100.00
36380;BME280;22411;53.016;18.632;2022-12-07T00:19:09;100025.22;;;1.78;100.00
36380;BME280;22411;53.016;18.632;2022-12-07T00:21:36;100022.66;;;1.78;100.00
36380;BME280;22411;53.016;18.632;2022-12-07T00:24:03;100018.50;;;1.75;100.00
36380;BME280;22411;53.016;18.632;2022-12-07T00:26:35;100019.44;;;1.73;100.00
36380;BME280;22411;53.016;18.632;2022-12-07T00:29:07;100017.72;;;1.73;100.00
36380;BME280;22411;53.016;18.632;2022-12-07T00:31:35;100015.31;;;1.70;100.00
36380;BME280;22411;53.016;18.632;2022-12-07T00:34:09;100015.97;;;1.75;100.00
36380;BME280;22411;53.016;18.632;2022-12-07T00:36:37;100017.63;;;1.76;100.00
36380;BME280;22411;53.016;18.632;2022-12-07T00:39:03;100012.44;;;1.78;100.00
36380;BME280;22411;53.016;18.632;2022-12-07T00:41:30;100007.41;;;1.76;100.00
36380;BME280;22411;53.016;18.632;2022-12-07T00:43:56;100009.38;;;1.70;100.00
36380;BME280;22411;53.016;18.632;2022-12-07T00:46:23;100009.13;;;1.76;100.00
36380;BME280;22411;53.016;18.632;2022-12-07T00:48:49;100011.78;;;1.73;100.00
36380;BME280;22411;53.016;18.632;2022-12-07T00:51:18;100028.00;;;1.72;100.00
36380;BME280;22411;53.016;18.632;2022-12-07T00:53:44;100010.66;;;1.58;100.00
36380;BME280;22411;53.016;18.632;2022-12-07T00:56:16;100009.00;;;1.57;100.00
36380;BME280;22411;53.016;18.632;2022-12-07T00:58:42;100001.41;;;1.55;100.00
36380;BME280;22411;53.016;18.632;2022-12-07T01:01:10;100001.47;;;1.54;100.00
36380;BME280;22411;53.016;18.632;2022-12-07T01:03:37;100006.41;;;1.59;100.00
36380;BME280;22411;53.016;18.632;2022-12-07T01:06:04;100005.88;;;1.50;100.00
36380;BME280;22411;53.016;18.632;2022-12-07T01:08:30;100006.63;;;1.52;100.00
36380;BME280;22411;53.016;18.632;2022-12-07T01:11:06;99994.91;;;1.47;100.00
36380;BME280;22411;53.016;18.632;2022-12-07T01:13:33;99994.06;;;1.48;100.00
36380;BME280;22411;53.016;18.632;2022-12-07T01:16:02;100000.09;;;1.45;100.00
36380;BME280;22411;53.016;18.632;2022-12-07T01:18:30;99989.72;;;1.50;100.00
36380;BME280;22411;53.016;18.632;2022-12-07T01:21:01;99984.59;;;1.50;100.00
36380;BME280;22411;53.016;18.632;2022-12-07T01:23:28;99982.03;;;1.50;100.00
36380;BME280;22411;53.016;18.632;2022-12-07T01:25:56;99982.22;;;1.45;100.00
36380;BME280;22411;53.016;18.632;2022-12-07T01:28:22;99970.19;;;1.49;100.00
36380;BME280;22411;53.016;18.632;2022-12-07T01:31:06;99972.66;;;1.50;100.00
36380;BME280;22411;53.016;18.632;2022-12-07T01:33:35;99971.00;;;1.49;100.00
36380;BME280;22411;53.016;18.632;2022-12-07T01:36:23;99970.22;;;1.47;100.00
36380;BME280;22411;53.016;18.632;2022-12-07T01:38:54;99961.63;;;1.50;100.00
36380;BME280;22411;53.016;18.632;2022-12-07T01:41:23;99966.63;;;1.53;100.00
36380;BME280;22411;53.016;18.632;2022-12-07T01:46:38;99958.81;;;1.56;100.00
36380;BME280;22411;53.016;18.632;2022-12-07T01:49:07;99960.84;;;1.48;100.00
36380;BME280;22411;53.016;18.632;2022-12-07T01:51:36;99958.09;;;1.52;100.00
36380;BME280;22411;53.016;18.632;2022-12-07T01:54:03;99959.00;;;1.51;100.00
36380;BME280;22411;53.016;18.632;2022-12-07T01:56:29;99952.94;;;1.54;100.00
36380;BME280;22411;53.016;18.632;2022-12-07T01:58:58;99954.59;;;1.55;100.00
36380;BME280;22411;53.016;18.632;2022-12-07T02:01:26;99947.88;;;1.52;100.00
36380;BME280;22411;53.016;18.632;2022-12-07T02:03:52;99946.22;;;1.51;100.00
36380;BME280;22411;53.016;18.632;2022-12-07T02:06:22;99935.16;;;1.51;100.00
36380;BME280;22411;53.016;18.632;2022-12-07T02:08:50;99933.44;;;1.51;100.00
36380;BME280;22411;53.016;18.632;2022-12-07T02:11:16;99924.03;;;1.53;100.00
36380;BME280;22411;53.016;18.632;2022-12-07T02:13:44;99922.97;;;1.57;100.00
36380;BME280;22411;53.016;18.632;2022-12-07T02:27:47;99911.09;;;1.56;100.00
36380;BME280;22411;53.016;18.632;2022-12-07T02:30:19;99912.13;;;1.52;100.00
36380;BME280;22411;53.016;18.632;2022-12-07T02:36:03;99913.97;;;1.49;100.00
36380;BME280;22411;53.016;18.632;2022-12-07T02:38:32;99907.06;;;1.51;100.00
36380;BME280;22411;53.016;18.632;2022-12-07T02:41:05;99905.25;;;1.54;100.00
36380;BME280;22411;53.016;18.632;2022-12-07T02:43:38;99918.00;;;1.54;100.00
36380;BME280;22411;53.016;18.632;2022-12-07T02:46:08;99918.19;;;1.50;100.00
36380;BME280;22411;53.016;18.632;2022-12-07T02:48:37;99916.56;;;1.47;100.00
36380;BME280;22411;53.016;18.632;2022-12-07T02:51:04;99905.78;;;1.41;100.00
36380;BME280;22411;53.016;18.632;2022-12-07T02:53:40;99905.94;;;1.38;100.00
36380;BME280;22411;53.016;18.632;2022-12-07T02:56:31;99903.31;;;1.39;100.00
36380;BME280;22411;53.016;18.632;2022-12-07T03:07:30;99902.00;;;1.29;100.00
36380;BME280;22411;53.016;18.632;2022-12-07T03:13:50;99891.53;;;1.35;100.00
36380;BME280;22411;53.016;18.632;2022-12-07T03:16:20;99894.34;;;1.29;100.00
36380;BME280;22411;53.016;18.632;2022-12-07T03:18:58;99888.16;;;1.35;100.00
36380;BME280;22411;53.016;18.632;2022-12-07T03:21:37;99894.03;;;1.37;100.00
36380;BME280;22411;53.016;18.632;2022-12-07T03:24:08;99882.94;;;1.38;100.00
36380;BME280;22411;53.016;18.632;2022-12-07T03:26:42;99890.38;;;1.42;100.00
36380;BME280;22411;53.016;18.632;2022-12-07T03:29:49;99882.88;;;1.39;100.00
36380;BME280;22411;53.016;18.632;2022-12-07T03:40:17;99871.25;;;1.52;100.00
36380;BME280;22411;53.016;18.632;2022-12-07T03:42:45;99870.50;;;1.50;100.00
36380;BME280;22411;53.016;18.632;2022-12-07T03:45:12;99865.84;;;1.60;100.00
36380;BME280;22411;53.016;18.632;2022-12-07T03:50:32;99864.28;;;1.56;100.00
36380;BME280;22411;53.016;18.632;2022-12-07T03:53:33;99859.84;;;1.61;100.00
36380;BME280;22411;53.016;18.632;2022-12-07T03:56:00;99855.56;;;1.62;100.00
36380;BME280;22411;53.016;18.632;2022-12-07T03:58:28;99858.88;;;1.64;100.00
36380;BME280;22411;53.016;18.632;2022-12-07T04:00:55;99861.22;;;1.68;100.00
36380;BME280;22411;53.016;18.632;2022-12-07T04:03:22;99849.22;;;1.70;100.00
36380;BME280;22411;53.016;18.632;2022-12-07T04:05:47;99844.06;;;1.72;100.00
36380;BME280;22411;53.016;18.632;2022-12-07T04:08:14;99841.38;;;1.75;100.00
36380;BME280;22411;53.016;18.632;2022-12-07T04:10:40;99843.78;;;1.78;100.00
36380;BME280;22411;53.016;18.632;2022-12-07T04:13:06;99847.88;;;1.82;100.00
36380;BME280;22411;53.016;18.632;2022-12-07T04:15:32;99842.84;;;1.80;100.00
36380;BME280;22411;53.016;18.632;2022-12-07T04:17:58;99838.16;;;1.90;100.00
36380;BME280;22411;53.016;18.632;2022-12-07T04:20:24;99839.94;;;1.88;100.00
36380;BME280;22411;53.016;18.632;2022-12-07T04:22:50;99839.66;;;1.94;100.00
36380;BME280;22411;53.016;18.632;2022-12-07T04:25:16;99842.03;;;1.99;100.00
36380;BME280;22411;53.016;18.632;2022-12-07T04:27:42;99842.75;;;2.02;100.00
36380;BME280;22411;53.016;18.632;2022-12-07T04:30:08;99834.91;;;2.05;100.00
36380;BME280;22411;53.016;18.632;2022-12-07T04:32:34;99841.63;;;2.08;100.00
36380;BME280;22411;53.016;18.632;2022-12-07T04:35:00;99845.22;;;2.04;100.00
36380;BME280;22411;53.016;18.632;2022-12-07T04:37:26;99836.53;;;2.08;100.00
36380;BME280;22411;53.016;18.632;2022-12-07T04:39:52;99836.44;;;2.09;100.00
36380;BME280;22411;53.016;18.632;2022-12-07T04:42:18;99839.72;;;2.13;100.00
36380;BME280;22411;53.016;18.632;2022-12-07T04:44:44;99841.28;;;2.16;100.00
36380;BME280;22411;53.016;18.632;2022-12-07T04:47:10;99839.56;;;2.16;100.00
36380;BME280;22411;53.016;18.632;2022-12-07T04:49:36;99851.66;;;2.13;100.00
36380;BME280;22411;53.016;18.632;2022-12-07T04:52:02;99843.72;;;2.19;100.00
36380;BME280;22411;53.016;18.632;2022-12-07T04:54:28;99840.47;;;2.15;100.00
36380;BME280;22411;53.016;18.632;2022-12-07T04:56:54;99832.88;;;2.14;100.00
36380;BME280;22411;53.016;18.632;2022-12-07T04:59:19;99833.78;;;2.13;100.00
36380;BME280;22411;53.016;18.632;2022-12-07T05:01:46;99836.06;;;2.19;100.00
36380;BME280;22411;53.016;18.632;2022-12-07T05:04:12;99825.13;;;2.15;100.00
36380;BME280;22411;53.016;18.632;2022-12-07T05:06:39;99819.09;;;2.16;100.00
36380;BME280;22411;53.016;18.632;2022-12-07T05:09:05;99822.63;;;2.14;100.00
36380;BME280;22411;53.016;18.632;2022-12-07T05:11:31;99827.19;;;2.07;100.00
36380;BME280;22411;53.016;18.632;2022-12-07T05:14:15;99819.47;;;2.08;100.00
36380;BME280;22411;53.016;18.632;2022-12-07T05:16:42;99817.09;;;2.04;100.00
36380;BME280;22411;53.016;18.632;2022-12-07T05:19:09;99818.06;;;2.01;100.00
36380;BME280;22411;53.016;18.632;2022-12-07T05:21:37;99822.41;;;1.99;100.00
36380;BME280;22411;53.016;18.632;2022-12-07T05:24:04;99821.72;;;1.96;100.00
36380;BME280;22411;53.016;18.632;2022-12-07T05:26:31;99826.84;;;1.96;100.00
36380;BME280;22411;53.016;18.632;2022-12-07T05:28:57;99824.53;;;1.90;100.00
36380;BME280;22411;53.016;18.632;2022-12-07T05:31:25;99823.50;;;1.94;100.00
36380;BME280;22411;53.016;18.632;2022-12-07T05:33:51;99818.47;;;1.92;100.00
36380;BME280;22411;53.016;18.632;2022-12-07T05:36:17;99818.41;;;1.94;100.00
36380;BME280;22411;53.016;18.632;2022-12-07T05:38:43;99820.13;;;1.93;100.00
36380;BME280;22411;53.016;18.632;2022-12-07T05:41:13;99814.25;;;1.91;100.00
36380;BME280;22411;53.016;18.632;2022-12-07T05:44:00;99825.69;;;1.82;100.00
36380;BME280;22411;53.016;18.632;2022-12-07T05:46:28;99829.16;;;1.81;100.00
36380;BME280;22411;53.016;18.632;2022-12-07T05:48:54;99816.66;;;1.75;100.00
36380;BME280;22411;53.016;18.632;2022-12-07T05:51:20;99829.34;;;1.77;100.00
36380;BME280;22411;53.016;18.632;2022-12-07T05:53:46;99827.81;;;1.73;100.00
36380;BME280;22411;53.016;18.632;2022-12-07T05:56:12;99828.97;;;1.66;100.00
36380;BME280;22411;53.016;18.632;2022-12-07T05:58:38;99836.66;;;1.66;100.00
36380;BME280;22411;53.016;18.632;2022-12-07T06:01:23;99835.19;;;1.60;100.00
36380;BME280;22411;53.016;18.632;2022-12-07T06:03:48;99837.75;;;1.60;100.00
36380;BME280;22411;53.016;18.632;2022-12-07T06:06:15;99836.00;;;1.61;100.00
36380;BME280;22411;53.016;18.632;2022-12-07T06:08:40;99852.50;;;1.53;100.00
36380;BME280;22411;53.016;18.632;2022-12-07T06:11:07;99838.25;;;1.48;100.00
36380;BME280;22411;53.016;18.632;2022-12-07T06:13:51;99839.91;;;1.49;100.00
36380;BME280;22411;53.016;18.632;2022-12-07T06:16:17;99836.56;;;1.47;100.00
36380;BME280;22411;53.016;18.632;2022-12-07T06:18:43;99831.44;;;1.48;100.00
36380;BME280;22411;53.016;18.632;2022-12-07T06:21:09;99834.22;;;1.42;100.00
36380;BME280;22411;53.016;18.632;2022-12-07T06:23:35;99835.75;;;1.46;100.00
36380;BME280;22411;53.016;18.632;2022-12-07T06:26:01;99844.13;;;1.50;100.00
36380;BME280;22411;53.016;18.632;2022-12-07T06:28:27;99841.00;;;1.43;100.00
36380;BME280;22411;53.016;18.632;2022-12-07T06:31:03;99840.94;;;1.45;100.00
36380;BME280;22411;53.016;18.632;2022-12-07T06:33:29;99852.31;;;1.38;100.00
36380;BME280;22411;53.016;18.632;2022-12-07T06:35:55;99848.91;;;1.37;100.00
36380;BME280;22411;53.016;18.632;2022-12-07T06:38:21;99849.03;;;1.34;100.00
36380;BME280;22411;53.016;18.632;2022-12-07T06:40:48;99853.50;;;1.29;100.00
36380;BME280;22411;53.016;18.632;2022-12-07T06:43:14;99850.88;;;1.30;100.00
36380;BME280;22411;53.016;18.632;2022-12-07T06:45:41;99854.31;;;1.29;100.00
36380;BME280;22411;53.016;18.632;2022-12-07T06:48:06;99846.00;;;1.24;100.00
36380;BME280;22411;53.016;18.632;2022-12-07T06:50:33;99859.59;;;1.25;100.00
36380;BME280;22411;53.016;18.632;2022-12-07T06:52:59;99853.75;;;1.23;100.00
36380;BME280;22411;53.016;18.632;2022-12-07T06:55:25;99852.19;;;1.19;100.00
36380;BME280;22411;53.016;18.632;2022-12-07T06:57:51;99871.06;;;1.15;100.00
36380;BME280;22411;53.016;18.632;2022-12-07T07:00:17;99856.75;;;1.11;100.00
36380;BME280;22411;53.016;18.632;2022-12-07T07:02:43;99857.72;;;1.08;100.00
36380;BME280;22411;53.016;18.632;2022-12-07T07:05:10;99860.34;;;1.07;100.00
36380;BME280;22411;53.016;18.632;2022-12-07T07:07:35;99856.19;;;1.04;100.00
36380;BME280;22411;53.016;18.632;2022-12-07T07:10:02;99862.50;;;0.95;100.00
36380;BME280;22411;53.016;18.632;2022-12-07T07:12:28;99861.66;;;0.95;100.00
36380;BME280;22411;53.016;18.632;2022-12-07T07:14:54;99851.56;;;0.92;100.00
36380;BME280;22411;53.016;18.632;2022-12-07T07:17:20;99848.31;;;0.88;100.00
36380;BME280;22411;53.016;18.632;2022-12-07T07:19:46;99852.34;;;0.94;100.00
36380;BME280;22411;53.016;18.632;2022-12-07T07:22:12;99857.50;;;0.92;100.00
36380;BME280;22411;53.016;18.632;2022-12-07T07:24:38;99853.41;;;0.88;100.00
36380;BME280;22411;53.016;18.632;2022-12-07T07:27:04;99847.72;;;0.82;100.00
36380;BME280;22411;53.016;18.632;2022-12-07T07:29:30;99854.31;;;0.87;100.00
36380;BME280;22411;53.016;18.632;2022-12-07T07:31:55;99857.81;;;0.85;100.00
36380;BME280;22411;53.016;18.632;2022-12-07T07:34:22;99873.00;;;0.88;100.00
36380;BME280;22411;53.016;18.632;2022-12-07T07:36:47;99858.66;;;0.85;100.00
36380;BME280;22411;53.016;18.632;2022-12-07T07:39:14;99863.19;;;0.77;100.00
36380;BME280;22411;53.016;18.632;2022-12-07T07:41:39;99856.19;;;0.82;100.00
36380;BME280;22411;53.016;18.632;2022-12-07T07:44:06;99852.09;;;0.78;100.00
36380;BME280;22411;53.016;18.632;2022-12-07T07:46:31;99858.84;;;0.79;100.00
36380;BME280;22411;53.016;18.632;2022-12-07T07:48:58;99858.22;;;0.74;100.00
36380;BME280;22411;53.016;18.632;2022-12-07T07:51:24;99863.53;;;0.68;100.00
36380;BME280;22411;53.016;18.632;2022-12-07T07:53:50;99861.88;;;0.67;100.00
36380;BME280;22411;53.016;18.632;2022-12-07T07:56:16;99863.44;;;0.71;100.00
36380;BME280;22411;53.016;18.632;2022-12-07T07:58:42;99862.72;;;0.67;100.00
36380;BME280;22411;53.016;18.632;2022-12-07T08:01:08;99858.59;;;0.63;100.00
36380;BME280;22411;53.016;18.632;2022-12-07T08:03:35;99866.97;;;0.67;100.00
36380;BME280;22411;53.016;18.632;2022-12-07T08:06:02;99855.03;;;0.69;100.00
36380;BME280;22411;53.016;18.632;2022-12-07T08:08:29;99859.22;;;0.70;100.00
36380;BME280;22411;53.016;18.632;2022-12-07T08:10:55;99864.03;;;0.77;100.00
36380;BME280;22411;53.016;18.632;2022-12-07T08:13:21;99859.06;;;0.74;100.00
36380;BME280;22411;53.016;18.632;2022-12-07T08:15:47;99855.59;;;0.75;100.00
36380;BME280;22411;53.016;18.632;2022-12-07T08:18:14;99866.56;;;0.77;100.00
36380;BME280;22411;53.016;18.632;2022-12-07T08:20:41;99859.81;;;0.76;100.00
36380;BME280;22411;53.016;18.632;2022-12-07T08:23:11;99857.09;;;0.81;100.00
36380;BME280;22411;53.016;18.632;2022-12-07T08:25:37;99858.66;;;0.85;100.00
36380;BME280;22411;53.016;18.632;2022-12-07T08:28:03;99863.19;;;0.99;100.00
36380;BME280;22411;53.016;18.632;2022-12-07T08:30:30;99858.81;;;1.02;100.00
36380;BME280;22411;53.016;18.632;2022-12-07T08:32:57;99858.69;;;1.06;100.00
36380;BME280;22411;53.016;18.632;2022-12-07T08:35:23;99866.88;;;1.14;100.00
36380;BME280;22411;53.016;18.632;2022-12-07T08:37:49;99868.22;;;1.22;100.00
36380;BME280;22411;53.016;18.632;2022-12-07T08:40:15;99859.53;;;1.26;100.00
36380;BME280;22411;53.016;18.632;2022-12-07T08:42:42;99864.47;;;1.31;100.00
36380;BME280;22411;53.016;18.632;2022-12-07T08:45:12;99854.06;;;1.36;100.00
36380;BME280;22411;53.016;18.632;2022-12-07T08:47:43;99861.63;;;1.39;100.00
36380;BME280;22411;53.016;18.632;2022-12-07T08:50:11;99859.88;;;1.39;100.00
36380;BME280;22411;53.016;18.632;2022-12-07T08:52:40;99857.34;;;1.39;100.00
36380;BME280;22411;53.016;18.632;2022-12-07T08:55:09;99861.03;;;1.32;100.00
36380;BME280;22411;53.016;18.632;2022-12-07T08:57:37;99860.97;;;1.34;100.00
36380;BME280;22411;53.016;18.632;2022-12-07T09:00:05;99849.03;;;1.34;100.00
36380;BME280;22411;53.016;18.632;2022-12-07T09:02:31;99843.84;;;1.36;100.00
36380;BME280;22411;53.016;18.632;2022-12-07T09:04:57;99852.97;;;1.41;100.00
36380;BME280;22411;53.016;18.632;2022-12-07T09:07:24;99847.50;;;1.50;100.00
36380;BME280;22411;53.016;18.632;2022-12-07T09:09:50;99846.31;;;1.59;100.00
36380;BME280;22411;53.016;18.632;2022-12-07T09:12:17;99845.22;;;1.65;100.00
36380;BME280;22411;53.016;18.632;2022-12-07T09:14:42;99838.31;;;1.67;100.00
36380;BME280;22411;53.016;18.632;2022-12-07T09:17:11;99820.41;;;1.67;100.00
36380;BME280;22411;53.016;18.632;2022-12-07T09:19:38;99822.84;;;1.70;100.00
36380;BME280;22411;53.016;18.632;2022-12-07T09:22:05;99827.63;;;1.77;100.00
36380;BME280;22411;53.016;18.632;2022-12-07T09:24:31;99816.69;;;1.74;100.00
36380;BME280;22411;53.016;18.632;2022-12-07T09:26:58;99815.81;;;1.75;100.00
36380;BME280;22411;53.016;18.632;2022-12-07T09:29:24;99821.13;;;1.70;100.00
36380;BME280;22411;53.016;18.632;2022-12-07T09:31:53;99816.22;;;1.66;100.00
36380;BME280;22411;53.016;18.632;2022-12-07T09:34:19;99812.19;;;1.60;100.00
36380;BME280;22411;53.016;18.632;2022-12-07T09:36:46;99816.59;;;1.56;100.00
36380;BME280;22411;53.016;18.632;2022-12-07T09:39:11;99817.59;;;1.52;100.00
36380;BME280;22411;53.016;18.632;2022-12-07T09:41:42;99804.97;;;1.49;100.00
36380;BME280;22411;53.016;18.632;2022-12-07T09:44:23;99803.91;;;1.55;100.00
36380;BME280;22411;53.016;18.632;2022-12-07T09:46:50;99799.69;;;1.54;100.00
36380;BME280;22411;53.016;18.632;2022-12-07T09:49:23;99800.50;;;1.54;100.00
36380;BME280;22411;53.016;18.632;2022-12-07T09:52:25;99792.78;;;1.56;100.00
36380;BME280;22411;53.016;18.632;2022-12-07T09:54:52;99790.03;;;1.61;100.00
36380;BME280;22411;53.016;18.632;2022-12-07T09:57:27;99793.50;;;1.60;100.00
36380;BME280;22411;53.016;18.632;2022-12-07T09:59:56;99776.34;;;1.62;100.00
36380;BME280;22411;53.016;18.632;2022-12-07T10:02:38;99777.44;;;1.76;100.00
36380;BME280;22411;53.016;18.632;2022-12-07T10:05:13;99778.88;;;1.82;100.00
36380;BME280;22411;53.016;18.632;2022-12-07T10:07:40;99777.84;;;1.86;100.00
36380;BME280;22411;53.016;18.632;2022-12-07T10:10:19;99780.53;;;1.83;100.00
36380;BME280;22411;53.016;18.632;2022-12-07T10:13:12;99770.31;;;1.83;100.00
36380;BME280;22411;53.016;18.632;2022-12-07T10:15:54;99769.28;;;1.87;100.00
36380;BME280;22411;53.016;18.632;2022-12-07T10:18:30;99767.28;;;1.94;100.00
36380;BME280;22411;53.016;18.632;2022-12-07T10:23:35;99768.31;;;1.90;100.00
36380;BME280;22411;53.016;18.632;2022-12-07T10:26:34;99755.81;;;1.83;100.00
36380;BME280;22411;53.016;18.632;2022-12-07T10:29:23;99760.91;;;1.83;100.00
36380;BME280;22411;53.016;18.632;2022-12-07T10:31:55;99752.63;;;1.78;100.00
36380;BME280;22411;53.016;18.632;2022-12-07T10:34:35;99751.53;;;1.84;100.00
36380;BME280;22411;53.016;18.632;2022-12-07T10:37:18;99749.13;;;1.81;100.00
36380;BME280;22411;53.016;18.632;2022-12-07T10:39:57;99756.72;;;1.82;100.00
36380;BME280;22411;53.016;18.632;2022-12-07T10:42:28;99751.69;;;1.81;100.00
36380;BME280;22411;53.016;18.632;2022-12-07T11:06:37;99718.19;;;1.87;100.00
36380;BME280;22411;53.016;18.632;2022-12-07T11:09:39;99719.53;;;1.94;100.00
36380;BME280;22411;53.016;18.632;2022-12-07T11:12:39;99721.81;;;2.00;100.00
36380;BME280;22411;53.016;18.632;2022-12-07T11:15:35;99714.94;;;2.02;100.00
36380;BME280;22411;53.016;18.632;2022-12-07T11:18:21;99704.22;;;1.94;100.00
36380;BME280;22411;53.016;18.632;2022-12-07T11:24:00;99709.03;;;2.00;100.00
36380;BME280;22411;53.016;18.632;2022-12-07T11:32:22;99703.84;;;2.21;100.00
36380;BME280;22411;53.016;18.632;2022-12-07T11:37:21;99700.81;;;2.13;100.00
36380;BME280;22411;53.016;18.632;2022-12-07T11:39:54;99690.31;;;2.00;100.00
36380;BME280;22411;53.016;18.632;2022-12-07T11:42:30;99692.97;;;1.98;100.00
36380;BME280;22411;53.016;18.632;2022-12-07T11:45:04;99692.06;;;1.99;100.00
36380;BME280;22411;53.016;18.632;2022-12-07T11:47:54;99682.13;;;1.93;100.00
36380;BME280;22411;53.016;18.632;2022-12-07T11:53:10;99674.66;;;1.89;100.00
36380;BME280;22411;53.016;18.632;2022-12-07T11:55:43;99667.88;;;1.88;100.00
36380;BME280;22411;53.016;18.632;2022-12-07T12:00:49;99666.56;;;1.79;100.00
36380;BME280;22411;53.016;18.632;2022-12-07T12:03:25;99674.25;;;1.79;100.00
36380;BME280;22411;53.016;18.632;2022-12-07T12:05:56;99667.69;;;1.73;100.00
36380;BME280;22411;53.016;18.632;2022-12-07T12:08:38;99665.13;;;1.73;100.00
36380;BME280;22411;53.016;18.632;2022-12-07T12:11:19;99659.16;;;1.74;100.00
36380;BME280;22411;53.016;18.632;2022-12-07T12:22:47;99638.00;;;1.71;100.00
36380;BME280;22411;53.016;18.632;2022-12-07T12:25:24;99648.97;;;1.73;100.00
36380;BME280;22411;53.016;18.632;2022-12-07T12:27:54;99642.13;;;1.73;100.00
36380;BME280;22411;53.016;18.632;2022-12-07T12:30:36;99636.78;;;1.79;100.00
36380;BME280;22411;53.016;18.632;2022-12-07T12:33:14;99640.41;;;1.74;100.00
36380;BME280;22411;53.016;18.632;2022-12-07T12:35:43;99642.97;;;1.74;100.00
36380;BME280;22411;53.016;18.632;2022-12-07T12:38:33;99640.41;;;1.74;100.00
36380;BME280;22411;53.016;18.632;2022-12-07T12:41:00;99632.91;;;1.71;100.00
36380;BME280;22411;53.016;18.632;2022-12-07T12:43:46;99630.19;;;1.74;100.00
36380;BME280;22411;53.016;18.632;2022-12-07T12:51:45;99626.34;;;1.65;100.00
36380;BME280;22411;53.016;18.632;2022-12-07T12:54:34;99623.78;;;1.65;100.00
36380;BME280;22411;53.016;18.632;2022-12-07T12:57:15;99621.84;;;1.70;100.00
36380;BME280;22411;53.016;18.632;2022-12-07T13:02:26;99619.38;;;1.69;100.00
36380;BME280;22411;53.016;18.632;2022-12-07T13:15:51;99613.22;;;1.54;100.00
36380;BME280;22411;53.016;18.632;2022-12-07T13:20:56;99602.13;;;1.55;100.00
36380;BME280;22411;53.016;18.632;2022-12-07T13:28:52;99596.50;;;1.47;100.00
36380;BME280;22411;53.016;18.632;2022-12-07T13:33:58;99599.06;;;1.47;100.00
36380;BME280;22411;53.016;18.632;2022-12-07T13:36:32;99602.53;;;1.46;100.00
36380;BME280;22411;53.016;18.632;2022-12-07T13:39:20;99603.00;;;1.35;100.00
36380;BME280;22411;53.016;18.632;2022-12-07T13:41:53;99596.25;;;1.34;100.00
36380;BME280;22411;53.016;18.632;2022-12-07T13:44:21;99597.56;;;1.43;100.00
36380;BME280;22411;53.016;18.632;2022-12-07T13:47:00;99605.28;;;1.41;100.00
36380;BME280;22411;53.016;18.632;2022-12-07T13:49:31;99604.66;;;1.36;100.00
36380;BME280;22411;53.016;18.632;2022-12-07T13:54:43;99603.00;;;1.35;100.00
36380;BME280;22411;53.016;18.632;2022-12-07T13:57:10;99597.19;;;1.31;100.00
36380;BME280;22411;53.016;18.632;2022-12-07T13:59:36;99603.16;;;1.32;100.00
36380;BME280;22411;53.016;18.632;2022-12-07T14:02:31;99597.97;;;1.34;100.00
36380;BME280;22411;53.016;18.632;2022-12-07T14:05:28;99605.44;;;1.38;100.00
36380;BME280;22411;53.016;18.632;2022-12-07T14:08:03;99589.28;;;1.38;100.00
36380;BME280;22411;53.016;18.632;2022-12-07T14:10:36;99601.34;;;1.34;100.00
36380;BME280;22411;53.016;18.632;2022-12-07T14:13:27;99596.88;;;1.39;100.00
36380;BME280;22411;53.016;18.632;2022-12-07T14:15:54;99598.69;;;1.37;100.00
36380;BME280;22411;53.016;18.632;2022-12-07T14:18:27;99596.25;;;1.34;100.00
36380;BME280;22411;53.016;18.632;2022-12-07T14:21:18;99594.44;;;1.36;100.00
36380;BME280;22411;53.016;18.632;2022-12-07T14:23:45;99598.53;;;1.40;100.00
36380;BME280;22411;53.016;18.632;2022-12-07T14:26:18;99592.78;;;1.35;100.00
36380;BME280;22411;53.016;18.632;2022-12-07T14:28:45;99599.50;;;1.38;100.00
36380;BME280;22411;53.016;18.632;2022-12-07T14:31:14;99597.28;;;1.30;100.00
36380;BME280;22411;53.016;18.632;2022-12-07T14:33:41;99593.44;;;1.21;100.00
36380;BME280;22411;53.016;18.632;2022-12-07T14:36:14;99601.09;;;1.21;100.00
36380;BME280;22411;53.016;18.632;2022-12-07T14:38:40;99594.81;;;1.28;100.00
36380;BME280;22411;53.016;18.632;2022-12-07T14:41:17;99599.13;;;1.26;100.00
36380;BME280;22411;53.016;18.632;2022-12-07T14:44:11;99605.41;;;1.19;100.00
36380;BME280;22411;53.016;18.632;2022-12-07T14:46:37;99604.72;;;1.16;100.00
36380;BME280;22411;53.016;18.632;2022-12-07T14:49:03;99608.25;;;1.13;100.00
36380;BME280;22411;53.016;18.632;2022-12-07T14:51:30;99603.22;;;1.12;100.00
36380;BME280;22411;53.016;18.632;2022-12-07T14:53:56;99597.81;;;1.18;100.00
36380;BME280;22411;53.016;18.632;2022-12-07T14:56:23;99593.81;;;1.12;100.00
36380;BME280;22411;53.016;18.632;2022-12-07T14:58:49;99589.63;;;1.11;100.00
36380;BME280;22411;53.016;18.632;2022-12-07T15:01:15;99593.13;;;1.09;100.00
36380;BME280;22411;53.016;18.632;2022-12-07T15:03:41;99599.25;;;1.04;100.00
36380;BME280;22411;53.016;18.632;2022-12-07T15:06:07;99598.09;;;1.12;100.00
36380;BME280;22411;53.016;18.632;2022-12-07T15:08:33;99596.50;;;1.09;100.00
36380;BME280;22411;53.016;18.632;2022-12-07T15:10:59;99606.38;;;1.17;100.00